createdAt,value
2018-11-27T00:00:04.519Z,950.61
2018-11-27T00:01:04.512Z,950.62
2018-11-27T00:02:04.509Z,950.64
2018-11-27T00:03:04.509Z,950.62
2018-11-27T00:04:04.501Z,950.63
2018-11-27T00:05:04.496Z,950.69
2018-11-27T00:06:04.543Z,950.63
2018-11-27T00:07:04.489Z,950.67
2018-11-27T00:08:04.485Z,950.67
2018-11-27T00:09:04.480Z,950.7
2018-11-27T00:10:04.477Z,950.68
2018-11-27T00:11:04.475Z,950.7
2018-11-27T00:12:04.469Z,950.7
2018-11-27T00:13:04.487Z,950.72
2018-11-27T00:14:04.462Z,950.73
2018-11-27T00:15:04.457Z,950.75
2018-11-27T00:16:04.454Z,950.76
2018-11-27T00:17:04.449Z,950.75
2018-11-27T00:18:04.447Z,950.78
2018-11-27T00:19:04.442Z,950.78
2018-11-27T00:20:04.438Z,950.82
2018-11-27T00:21:04.486Z,950.8
2018-11-27T00:22:04.432Z,950.81
2018-11-27T00:23:04.427Z,950.85
2018-11-27T00:24:04.423Z,950.85
2018-11-27T00:25:04.419Z,950.84
2018-11-27T00:26:04.415Z,950.89
2018-11-27T00:27:04.413Z,950.87
2018-11-27T00:28:04.415Z,950.86
2018-11-27T00:29:04.403Z,950.86
2018-11-27T00:30:04.400Z,950.84
2018-11-27T00:31:04.395Z,950.86
2018-11-27T00:32:04.396Z,950.84
2018-11-27T00:33:04.387Z,950.88
2018-11-27T00:34:04.383Z,950.87
2018-11-27T00:35:04.380Z,950.88
2018-11-27T00:36:04.426Z,950.91
2018-11-27T00:37:04.374Z,950.89
2018-11-27T00:38:04.370Z,950.94
2018-11-27T00:39:04.365Z,950.91
2018-11-27T00:40:04.362Z,950.94
2018-11-27T00:41:04.408Z,950.9
2018-11-27T00:42:04.353Z,950.91
2018-11-27T00:43:04.352Z,950.94
2018-11-27T00:44:04.346Z,950.92
2018-11-27T00:45:04.361Z,950.97
2018-11-27T00:46:04.339Z,950.93
2018-11-27T00:47:04.335Z,950.95
2018-11-27T00:48:04.331Z,950.94
2018-11-27T00:49:04.326Z,950.98
2018-11-27T00:50:04.323Z,950.97
2018-11-27T00:51:04.371Z,950.97
2018-11-27T00:52:04.316Z,950.97
2018-11-27T00:53:04.310Z,950.99
2018-11-27T00:54:04.307Z,951.03
2018-11-27T00:55:04.302Z,951
2018-11-27T00:56:04.297Z,951.06
2018-11-27T00:57:04.294Z,951.04
2018-11-27T00:58:04.292Z,951.08
2018-11-27T00:59:04.286Z,951.08
2018-11-27T01:00:04.293Z,951.09
2018-11-27T01:01:04.279Z,951.11
2018-11-27T01:02:04.275Z,951.08
2018-11-27T01:03:04.271Z,951.11
2018-11-27T01:04:04.267Z,951.12
2018-11-27T01:05:04.264Z,951.14
2018-11-27T01:06:04.409Z,951.16
2018-11-27T01:07:04.256Z,951.17
2018-11-27T01:08:04.255Z,951.16
2018-11-27T01:09:04.248Z,951.18
2018-11-27T01:10:04.244Z,951.2
2018-11-27T01:11:04.241Z,951.23
2018-11-27T01:12:04.238Z,951.2
2018-11-27T01:13:04.232Z,951.22
2018-11-27T01:14:04.231Z,951.27
2018-11-27T01:15:04.225Z,951.25
2018-11-27T01:16:04.221Z,951.25
2018-11-27T01:17:04.240Z,951.26
2018-11-27T01:18:04.213Z,951.25
2018-11-27T01:19:04.210Z,951.28
2018-11-27T01:20:04.205Z,951.29
2018-11-27T01:21:04.251Z,951.27
2018-11-27T01:22:04.197Z,951.28
2018-11-27T01:23:04.194Z,951.28
2018-11-27T01:24:04.190Z,951.31
2018-11-27T01:25:04.185Z,951.32
2018-11-27T01:26:04.182Z,951.29
2018-11-27T01:27:04.178Z,951.34
2018-11-27T01:28:04.175Z,951.33
2018-11-27T01:29:04.170Z,951.3
2018-11-27T01:30:04.166Z,951.33
2018-11-27T01:31:04.162Z,951.35
2018-11-27T01:32:04.157Z,951.32
2018-11-27T01:33:04.155Z,951.31
2018-11-27T01:34:04.150Z,951.34
2018-11-27T01:35:04.149Z,951.34
2018-11-27T01:36:04.190Z,951.34
2018-11-27T01:37:04.138Z,951.34
2018-11-27T01:38:04.134Z,951.36
2018-11-27T01:39:04.129Z,951.4
2018-11-27T01:40:04.124Z,951.36
2018-11-27T01:41:04.122Z,951.36
2018-11-27T01:42:04.122Z,951.39
2018-11-27T01:43:04.114Z,951.43
2018-11-27T01:44:04.109Z,951.42
2018-11-27T01:45:04.106Z,951.4
2018-11-27T01:46:04.101Z,951.41
2018-11-27T01:47:04.099Z,951.43
2018-11-27T01:48:04.095Z,951.44
2018-11-27T01:49:04.110Z,951.44
2018-11-27T01:50:04.088Z,951.41
2018-11-27T01:51:04.133Z,951.43
2018-11-27T01:52:04.083Z,951.42
2018-11-27T01:53:04.076Z,951.42
2018-11-27T01:54:04.077Z,951.44
2018-11-27T01:55:04.068Z,951.43
2018-11-27T01:56:04.114Z,951.47
2018-11-27T01:57:04.061Z,951.48
2018-11-27T01:58:04.056Z,951.48
2018-11-27T01:59:04.052Z,951.47
2018-11-27T02:00:04.048Z,951.51
2018-11-27T02:01:04.045Z,951.51
2018-11-27T02:02:04.041Z,951.49
2018-11-27T02:03:04.037Z,951.47
2018-11-27T02:04:04.032Z,951.43
2018-11-27T02:05:04.028Z,951.46
2018-11-27T02:06:04.024Z,951.47
2018-11-27T02:07:04.022Z,951.44
2018-11-27T02:08:04.018Z,951.44
2018-11-27T02:09:04.215Z,951.47
2018-11-27T02:10:04.011Z,951.47
2018-11-27T02:11:04.055Z,951.41
2018-11-27T02:12:04.003Z,951.46
2018-11-27T02:13:03.999Z,951.44
2018-11-27T02:14:03.997Z,951.46
2018-11-27T02:15:03.993Z,951.49
2018-11-27T02:16:03.986Z,951.47
2018-11-27T02:17:03.985Z,951.47
2018-11-27T02:18:03.980Z,951.51
2018-11-27T02:19:03.977Z,951.52
2018-11-27T02:20:03.973Z,951.54
2018-11-27T02:21:04.019Z,951.54
2018-11-27T02:22:03.964Z,951.5
2018-11-27T02:23:03.961Z,951.54
2018-11-27T02:24:03.957Z,951.54
2018-11-27T02:25:03.953Z,951.52
2018-11-27T02:26:03.949Z,951.53
2018-11-27T02:27:03.945Z,951.53
2018-11-27T02:28:03.941Z,951.52
2018-11-27T02:29:03.938Z,951.53
2018-11-27T02:30:03.933Z,951.52
2018-11-27T02:31:03.929Z,951.56
2018-11-27T02:32:03.926Z,951.55
2018-11-27T02:33:03.925Z,951.57
2018-11-27T02:34:03.917Z,951.6
2018-11-27T02:35:03.914Z,951.59
2018-11-27T02:36:04.011Z,951.58
2018-11-27T02:37:03.907Z,951.62
2018-11-27T02:38:03.902Z,951.6
2018-11-27T02:39:03.899Z,951.59
2018-11-27T02:40:03.901Z,951.58
2018-11-27T02:41:03.942Z,951.61
2018-11-27T02:42:03.886Z,951.58
2018-11-27T02:43:03.882Z,951.61
2018-11-27T02:44:03.880Z,951.63
2018-11-27T02:45:03.874Z,951.62
2018-11-27T02:46:04.872Z,951.61
2018-11-27T02:47:03.868Z,951.63
2018-11-27T02:48:03.864Z,951.63
2018-11-27T02:49:03.860Z,951.63
2018-11-27T02:50:03.861Z,951.61
2018-11-27T02:51:03.853Z,951.61
2018-11-27T02:52:03.854Z,951.62
2018-11-27T02:53:03.859Z,951.61
2018-11-27T02:54:03.840Z,951.65
2018-11-27T02:55:03.837Z,951.64
2018-11-27T02:56:03.883Z,951.65
2018-11-27T02:57:03.829Z,951.65
2018-11-27T02:58:03.827Z,951.65
2018-11-27T02:59:03.821Z,951.66
2018-11-27T03:00:03.817Z,951.68
2018-11-27T03:01:03.863Z,951.68
2018-11-27T03:02:03.809Z,951.73
2018-11-27T03:03:03.806Z,951.7
2018-11-27T03:04:03.802Z,951.73
2018-11-27T03:05:03.796Z,951.73
2018-11-27T03:06:03.794Z,951.74
2018-11-27T03:07:03.790Z,951.77
2018-11-27T03:08:03.787Z,951.81
2018-11-27T03:09:03.783Z,951.82
2018-11-27T03:10:03.781Z,951.82
2018-11-27T03:11:03.774Z,951.83
2018-11-27T03:12:03.771Z,951.84
2018-11-27T03:13:03.769Z,951.83
2018-11-27T03:14:03.765Z,951.86
2018-11-27T03:15:03.759Z,951.85
2018-11-27T03:16:03.806Z,951.89
2018-11-27T03:17:03.752Z,951.86
2018-11-27T03:18:03.748Z,951.87
2018-11-27T03:19:03.744Z,951.86
2018-11-27T03:20:03.742Z,951.84
2018-11-27T03:21:03.738Z,951.88
2018-11-27T03:22:03.733Z,951.89
2018-11-27T03:23:03.733Z,951.91
2018-11-27T03:24:03.725Z,951.9
2018-11-27T03:25:03.733Z,951.9
2018-11-27T03:26:03.717Z,951.9
2018-11-27T03:27:03.714Z,951.92
2018-11-27T03:28:03.711Z,951.9
2018-11-27T03:29:03.707Z,951.91
2018-11-27T03:30:03.704Z,951.96
2018-11-27T03:31:03.752Z,951.97
2018-11-27T03:32:03.697Z,951.98
2018-11-27T03:33:03.692Z,951.98
2018-11-27T03:34:03.689Z,952.01
2018-11-27T03:35:03.684Z,952.02
2018-11-27T03:36:03.682Z,952
2018-11-27T03:37:03.704Z,952.05
2018-11-27T03:38:03.673Z,952.08
2018-11-27T03:39:03.667Z,952.06
2018-11-27T03:40:03.664Z,952.07
2018-11-27T03:41:03.661Z,952.07
2018-11-27T03:42:03.657Z,952.08
2018-11-27T03:43:03.653Z,952.09
2018-11-27T03:44:03.648Z,952.11
2018-11-27T03:45:03.645Z,952.1
2018-11-27T03:46:03.696Z,952.09
2018-11-27T03:47:03.636Z,952.11
2018-11-27T03:48:03.634Z,952.16
2018-11-27T03:49:03.628Z,952.15
2018-11-27T03:50:03.629Z,952.15
2018-11-27T03:51:03.622Z,952.13
2018-11-27T03:52:03.617Z,952.26
2018-11-27T03:53:03.613Z,952.18
2018-11-27T03:54:03.609Z,952.19
2018-11-27T03:55:03.604Z,952.22
2018-11-27T03:56:03.651Z,952.24
2018-11-27T03:57:03.608Z,952.26
2018-11-27T03:58:03.593Z,952.23
2018-11-27T03:59:03.590Z,952.24
2018-11-27T04:00:03.585Z,952.3
2018-11-27T04:01:03.581Z,952.29
2018-11-27T04:02:03.578Z,952.29
2018-11-27T04:03:03.580Z,952.27
2018-11-27T04:04:03.570Z,952.29
2018-11-27T04:05:03.568Z,952.25
2018-11-27T04:06:03.562Z,952.24
2018-11-27T04:07:03.559Z,952.3
2018-11-27T04:08:03.556Z,952.31
2018-11-27T04:09:03.550Z,952.32
2018-11-27T04:10:03.546Z,952.3
2018-11-27T04:11:03.640Z,952.33
2018-11-27T04:12:03.537Z,952.31
2018-11-27T04:13:03.534Z,952.34
2018-11-27T04:14:03.527Z,952.36
2018-11-27T04:15:03.525Z,952.36
2018-11-27T04:16:03.660Z,952.34
2018-11-27T04:17:03.519Z,952.32
2018-11-27T04:18:03.517Z,952.37
2018-11-27T04:19:03.513Z,952.39
2018-11-27T04:20:03.507Z,952.41
2018-11-27T04:21:03.505Z,952.43
2018-11-27T04:22:03.500Z,952.43
2018-11-27T04:23:03.496Z,952.43
2018-11-27T04:24:03.491Z,952.43
2018-11-27T04:25:03.488Z,952.43
2018-11-27T04:26:03.583Z,952.46
2018-11-27T04:27:03.490Z,952.46
2018-11-27T04:28:03.476Z,952.47
2018-11-27T04:29:03.483Z,952.49
2018-11-27T04:30:03.469Z,952.47
2018-11-27T04:31:03.465Z,952.47
2018-11-27T04:32:03.460Z,952.48
2018-11-27T04:33:03.457Z,952.5
2018-11-27T04:34:03.455Z,952.53
2018-11-27T04:35:03.448Z,952.48
2018-11-27T04:36:03.444Z,952.53
2018-11-27T04:37:03.440Z,952.55
2018-11-27T04:38:03.437Z,952.52
2018-11-27T04:39:03.433Z,952.55
2018-11-27T04:40:03.429Z,952.56
2018-11-27T04:41:03.527Z,952.55
2018-11-27T04:42:03.422Z,952.56
2018-11-27T04:43:03.417Z,952.58
2018-11-27T04:44:03.413Z,952.53
2018-11-27T04:45:03.408Z,952.56
2018-11-27T04:46:03.406Z,952.57
2018-11-27T04:47:03.401Z,952.57
2018-11-27T04:48:03.399Z,952.59
2018-11-27T04:49:03.395Z,952.58
2018-11-27T04:50:03.401Z,952.58
2018-11-27T04:51:03.386Z,952.57
2018-11-27T04:52:03.383Z,952.6
2018-11-27T04:53:03.377Z,952.62
2018-11-27T04:54:03.374Z,952.65
2018-11-27T04:55:03.370Z,952.61
2018-11-27T04:56:03.415Z,952.65
2018-11-27T04:57:03.362Z,952.6
2018-11-27T04:58:03.358Z,952.66
2018-11-27T04:59:03.354Z,952.7
2018-11-27T05:00:03.350Z,952.73
2018-11-27T05:01:03.357Z,952.72
2018-11-27T05:02:03.341Z,952.72
2018-11-27T05:03:03.340Z,952.77
2018-11-27T05:04:03.344Z,952.76
2018-11-27T05:05:03.329Z,952.76
2018-11-27T05:06:03.326Z,952.76
2018-11-27T05:07:03.324Z,952.77
2018-11-27T05:08:03.319Z,952.81
2018-11-27T05:09:03.315Z,952.79
2018-11-27T05:10:03.311Z,952.81
2018-11-27T05:11:03.357Z,952.84
2018-11-27T05:12:03.303Z,952.84
2018-11-27T05:13:03.300Z,952.85
2018-11-27T05:14:03.296Z,952.88
2018-11-27T05:15:03.292Z,952.89
2018-11-27T05:16:03.288Z,952.88
2018-11-27T05:17:03.282Z,952.92
2018-11-27T05:18:03.279Z,952.91
2018-11-27T05:19:03.274Z,952.92
2018-11-27T05:20:03.270Z,952.94
2018-11-27T05:21:03.268Z,952.98
2018-11-27T05:22:03.263Z,952.96
2018-11-27T05:23:03.260Z,952.99
2018-11-27T05:24:03.255Z,952.99
2018-11-27T05:25:03.252Z,953.02
2018-11-27T05:26:03.299Z,952.95
2018-11-27T05:27:03.246Z,952.99
2018-11-27T05:28:03.241Z,952.97
2018-11-27T05:29:03.237Z,952.98
2018-11-27T05:30:03.232Z,953.03
2018-11-27T05:31:03.228Z,952.99
2018-11-27T05:32:03.226Z,953.01
2018-11-27T05:33:03.230Z,953.04
2018-11-27T05:34:03.215Z,953.05
2018-11-27T05:35:03.214Z,953.05
2018-11-27T05:36:03.259Z,953.06
2018-11-27T05:37:03.205Z,953.06
2018-11-27T05:38:03.201Z,953.08
2018-11-27T05:39:03.196Z,953.1
2018-11-27T05:40:03.193Z,953.13
2018-11-27T05:41:03.189Z,953.19
2018-11-27T05:42:03.185Z,953.16
2018-11-27T05:43:03.183Z,953.19
2018-11-27T05:44:03.178Z,953.2
2018-11-27T05:45:03.173Z,953.21
2018-11-27T05:46:03.170Z,953.21
2018-11-27T05:47:03.165Z,953.23
2018-11-27T05:48:03.163Z,953.24
2018-11-27T05:49:03.158Z,953.25
2018-11-27T05:50:03.155Z,953.28
2018-11-27T05:51:03.201Z,953.3
2018-11-27T05:52:03.146Z,953.3
2018-11-27T05:53:03.143Z,953.28
2018-11-27T05:54:03.140Z,953.31
2018-11-27T05:55:03.134Z,953.34
2018-11-27T05:56:03.181Z,953.33
2018-11-27T05:57:03.127Z,953.39
2018-11-27T05:58:03.125Z,953.39
2018-11-27T05:59:03.119Z,953.41
2018-11-27T06:00:03.117Z,953.43
2018-11-27T06:01:03.112Z,953.43
2018-11-27T06:02:03.109Z,953.42
2018-11-27T06:03:03.107Z,953.42
2018-11-27T06:04:03.102Z,953.45
2018-11-27T06:05:03.105Z,953.45
2018-11-27T06:06:03.093Z,953.41
2018-11-27T06:07:03.089Z,953.45
2018-11-27T06:08:03.092Z,953.47
2018-11-27T06:09:03.083Z,953.45
2018-11-27T06:10:03.079Z,953.45
2018-11-27T06:11:03.124Z,953.5
2018-11-27T06:12:03.071Z,953.53
2018-11-27T06:13:03.067Z,953.51
2018-11-27T06:14:03.062Z,953.5
2018-11-27T06:15:03.058Z,953.52
2018-11-27T06:16:03.055Z,953.5
2018-11-27T06:17:03.050Z,953.54
2018-11-27T06:18:03.046Z,953.53
2018-11-27T06:19:03.044Z,953.58
2018-11-27T06:20:03.039Z,953.6
2018-11-27T06:21:03.034Z,953.65
2018-11-27T06:22:03.030Z,953.63
2018-11-27T06:23:03.026Z,953.62
2018-11-27T06:24:03.024Z,953.66
2018-11-27T06:25:03.020Z,953.64
2018-11-27T06:26:03.067Z,953.66
2018-11-27T06:27:03.014Z,953.71
2018-11-27T06:28:03.007Z,953.71
2018-11-27T06:29:03.003Z,953.73
2018-11-27T06:30:03.001Z,953.72
2018-11-27T06:31:02.996Z,953.72
2018-11-27T06:32:02.993Z,953.77
2018-11-27T06:33:02.989Z,953.78
2018-11-27T06:34:02.985Z,953.81
2018-11-27T06:35:02.993Z,953.83
2018-11-27T06:36:02.979Z,953.81
2018-11-27T06:37:02.980Z,953.83
2018-11-27T06:38:02.983Z,953.89
2018-11-27T06:39:02.964Z,953.87
2018-11-27T06:40:02.961Z,953.86
2018-11-27T06:41:03.008Z,953.88
2018-11-27T06:42:02.954Z,953.87
2018-11-27T06:43:02.949Z,953.87
2018-11-27T06:44:02.946Z,953.89
2018-11-27T06:45:02.944Z,953.9
2018-11-27T06:46:02.938Z,953.9
2018-11-27T06:47:02.934Z,953.89
2018-11-27T06:48:02.930Z,953.87
2018-11-27T06:49:02.928Z,953.91
2018-11-27T06:50:02.922Z,953.87
2018-11-27T06:51:02.922Z,953.93
2018-11-27T06:52:02.915Z,953.92
2018-11-27T06:53:02.913Z,953.94
2018-11-27T06:54:02.906Z,953.96
2018-11-27T06:55:02.903Z,953.98
2018-11-27T06:56:02.949Z,954.01
2018-11-27T06:57:02.897Z,954.01
2018-11-27T06:58:02.892Z,954.04
2018-11-27T06:59:02.888Z,954.06
2018-11-27T07:00:02.886Z,954.07
2018-11-27T07:01:02.880Z,954.05
2018-11-27T07:02:02.875Z,954.1
2018-11-27T07:03:02.873Z,954.12
2018-11-27T07:04:02.870Z,954.11
2018-11-27T07:05:02.865Z,954.17
2018-11-27T07:06:02.861Z,954.19
2018-11-27T07:07:02.858Z,954.22
2018-11-27T07:08:02.853Z,954.25
2018-11-27T07:09:02.853Z,954.28
2018-11-27T07:10:02.848Z,954.34
2018-11-27T07:11:02.895Z,954.29
2018-11-27T07:12:02.839Z,954.35
2018-11-27T07:13:02.834Z,954.35
2018-11-27T07:14:02.832Z,954.35
2018-11-27T07:15:02.830Z,954.37
2018-11-27T07:16:02.823Z,954.39
2018-11-27T07:17:02.820Z,954.39
2018-11-27T07:18:02.815Z,954.39
2018-11-27T07:19:02.812Z,954.4
2018-11-27T07:20:02.810Z,954.44
2018-11-27T07:21:02.805Z,954.48
2018-11-27T07:22:02.803Z,954.47
2018-11-27T07:23:02.819Z,954.48
2018-11-27T07:24:02.792Z,954.47
2018-11-27T07:25:02.788Z,954.55
2018-11-27T07:26:02.934Z,954.52
2018-11-27T07:27:02.781Z,954.57
2018-11-27T07:28:02.778Z,954.61
2018-11-27T07:29:02.776Z,954.56
2018-11-27T07:30:02.771Z,954.57
2018-11-27T07:31:02.767Z,954.66
2018-11-27T07:32:02.762Z,954.63
2018-11-27T07:33:02.759Z,954.63
2018-11-27T07:34:02.755Z,954.69
2018-11-27T07:35:02.752Z,954.69
2018-11-27T07:36:02.751Z,954.69
2018-11-27T07:37:02.745Z,954.68
2018-11-27T07:38:02.741Z,954.73
2018-11-27T07:39:02.738Z,954.79
2018-11-27T07:40:03.328Z,954.77
2018-11-27T07:41:02.780Z,954.82
2018-11-27T07:42:02.727Z,954.87
2018-11-27T07:43:02.722Z,954.9
2018-11-27T07:44:02.720Z,954.9
2018-11-27T07:45:02.716Z,954.89
2018-11-27T07:46:02.812Z,954.91
2018-11-27T07:47:02.708Z,954.91
2018-11-27T07:48:02.705Z,954.91
2018-11-27T07:49:02.700Z,954.93
2018-11-27T07:50:02.698Z,954.96
2018-11-27T07:51:02.743Z,954.94
2018-11-27T07:52:02.691Z,954.95
2018-11-27T07:53:02.686Z,954.97
2018-11-27T07:54:02.682Z,954.94
2018-11-27T07:55:02.679Z,954.96
2018-11-27T07:56:02.726Z,954.95
2018-11-27T07:57:02.671Z,954.97
2018-11-27T07:58:02.669Z,954.96
2018-11-27T07:59:02.665Z,954.98
2018-11-27T08:00:02.661Z,955
2018-11-27T08:01:02.657Z,954.99
2018-11-27T08:02:02.654Z,954.99
2018-11-27T08:03:02.649Z,955.07
2018-11-27T08:04:02.647Z,955.07
2018-11-27T08:05:02.642Z,955.07
2018-11-27T08:06:02.690Z,955.07
2018-11-27T08:07:02.637Z,955.08
2018-11-27T08:08:02.632Z,955.1
2018-11-27T08:09:02.631Z,955.08
2018-11-27T08:10:02.625Z,955.11
2018-11-27T08:11:03.622Z,955.11
2018-11-27T08:12:02.620Z,955.06
2018-11-27T08:13:02.616Z,955.09
2018-11-27T08:14:02.610Z,955.1
2018-11-27T08:15:02.607Z,955.14
2018-11-27T08:16:02.605Z,955.17
2018-11-27T08:17:02.600Z,955.18
2018-11-27T08:18:02.596Z,955.18
2018-11-27T08:19:02.593Z,955.18
2018-11-27T08:20:02.589Z,955.17
2018-11-27T08:21:02.637Z,955.21
2018-11-27T08:22:02.581Z,955.18
2018-11-27T08:23:02.578Z,955.18
2018-11-27T08:24:02.575Z,955.26
2018-11-27T08:25:02.570Z,955.21
2018-11-27T08:26:02.582Z,955.25
2018-11-27T08:27:02.565Z,955.25
2018-11-27T08:28:02.560Z,955.32
2018-11-27T08:29:02.556Z,955.33
2018-11-27T08:30:02.555Z,955.35
2018-11-27T08:31:02.550Z,955.38
2018-11-27T08:32:02.547Z,955.36
2018-11-27T08:33:02.544Z,955.36
2018-11-27T08:34:02.542Z,955.33
2018-11-27T08:35:02.538Z,955.37
2018-11-27T08:36:02.585Z,955.34
2018-11-27T08:37:02.530Z,955.39
2018-11-27T08:38:02.526Z,955.38
2018-11-27T08:39:02.523Z,955.44
2018-11-27T08:40:02.519Z,955.43
2018-11-27T08:41:02.516Z,955.44
2018-11-27T08:42:02.513Z,955.46
2018-11-27T08:43:02.510Z,955.51
2018-11-27T08:44:02.506Z,955.52
2018-11-27T08:45:02.503Z,955.56
2018-11-27T08:46:02.499Z,955.5
2018-11-27T08:47:02.497Z,955.58
2018-11-27T08:48:02.495Z,955.54
2018-11-27T08:49:02.489Z,955.54
2018-11-27T08:50:02.487Z,955.57
2018-11-27T08:51:02.533Z,955.57
2018-11-27T08:52:02.478Z,955.56
2018-11-27T08:53:02.475Z,955.59
2018-11-27T08:54:02.472Z,955.6
2018-11-27T08:55:02.468Z,955.61
2018-11-27T08:56:02.466Z,955.67
2018-11-27T08:57:02.463Z,955.64
2018-11-27T08:58:02.460Z,955.68
2018-11-27T08:59:02.455Z,955.68
2018-11-27T09:00:02.452Z,955.69
2018-11-27T09:01:02.449Z,955.69
2018-11-27T09:02:02.447Z,955.76
2018-11-27T09:03:02.443Z,955.73
2018-11-27T09:04:02.439Z,955.72
2018-11-27T09:05:02.435Z,955.78
2018-11-27T09:06:02.484Z,955.79
2018-11-27T09:07:02.430Z,955.8
2018-11-27T09:08:02.427Z,955.8
2018-11-27T09:09:02.423Z,955.82
2018-11-27T09:10:02.422Z,955.84
2018-11-27T09:11:02.436Z,955.88
2018-11-27T09:12:02.414Z,955.85
2018-11-27T09:13:02.412Z,955.89
2018-11-27T09:14:02.408Z,955.93
2018-11-27T09:15:02.405Z,955.91
2018-11-27T09:16:02.401Z,955.95
2018-11-27T09:17:02.399Z,955.91
2018-11-27T09:18:02.397Z,955.94
2018-11-27T09:19:02.393Z,955.93
2018-11-27T09:20:02.390Z,955.97
2018-11-27T09:21:02.439Z,955.97
2018-11-27T09:22:02.384Z,955.99
2018-11-27T09:23:02.385Z,956.01
2018-11-27T09:24:02.378Z,956.05
2018-11-27T09:25:02.377Z,956.05
2018-11-27T09:26:02.372Z,956.09
2018-11-27T09:27:02.369Z,956.1
2018-11-27T09:28:02.367Z,956.11
2018-11-27T09:29:02.365Z,956.12
2018-11-27T09:30:02.361Z,956.14
2018-11-27T09:31:02.458Z,956.15
2018-11-27T09:32:02.356Z,956.15
2018-11-27T09:33:02.358Z,956.17
2018-11-27T09:34:02.352Z,956.15
2018-11-27T09:35:02.349Z,956.18
2018-11-27T09:36:02.395Z,956.16
2018-11-27T09:37:02.343Z,956.16
2018-11-27T09:38:02.340Z,956.2
2018-11-27T09:39:02.340Z,956.21
2018-11-27T09:40:02.335Z,956.25
2018-11-27T09:41:02.332Z,956.22
2018-11-27T09:42:02.330Z,956.31
2018-11-27T09:43:02.331Z,956.26
2018-11-27T09:44:02.323Z,956.3
2018-11-27T09:45:02.341Z,956.27
2018-11-27T09:46:02.467Z,956.32
2018-11-27T09:47:02.318Z,956.28
2018-11-27T09:48:02.312Z,956.29
2018-11-27T09:49:02.309Z,956.28
2018-11-27T09:50:02.308Z,956.34
2018-11-27T09:51:02.358Z,956.28
2018-11-27T09:52:02.298Z,956.3
2018-11-27T09:53:02.301Z,956.27
2018-11-27T09:54:02.294Z,956.33
2018-11-27T09:55:02.294Z,956.3
2018-11-27T09:56:02.292Z,956.34
2018-11-27T09:57:02.291Z,956.32
2018-11-27T09:58:02.286Z,956.32
2018-11-27T09:59:02.284Z,956.34
2018-11-27T10:00:02.281Z,956.36
2018-11-27T10:01:02.278Z,956.39
2018-11-27T10:02:02.278Z,956.35
2018-11-27T10:03:02.273Z,956.38
2018-11-27T10:04:02.270Z,956.33
2018-11-27T10:05:02.272Z,956.33
2018-11-27T10:06:02.316Z,956.36
2018-11-27T10:07:02.264Z,956.32
2018-11-27T10:08:02.273Z,956.41
2018-11-27T10:09:02.272Z,956.41
2018-11-27T10:10:02.256Z,956.36
2018-11-27T10:11:02.257Z,956.41
2018-11-27T10:12:02.252Z,956.39
2018-11-27T10:13:02.248Z,956.4
2018-11-27T10:14:02.246Z,956.42
2018-11-27T10:15:02.241Z,956.46
2018-11-27T10:16:02.298Z,956.42
2018-11-27T10:17:02.238Z,956.45
2018-11-27T10:18:02.234Z,956.43
2018-11-27T10:19:02.232Z,956.42
2018-11-27T10:20:02.229Z,956.39
2018-11-27T10:21:02.278Z,956.41
2018-11-27T10:22:02.224Z,956.4
2018-11-27T10:23:02.224Z,956.45
2018-11-27T10:24:02.219Z,956.45
2018-11-27T10:25:02.220Z,956.46
2018-11-27T10:26:02.213Z,956.49
2018-11-27T10:27:02.211Z,956.53
2018-11-27T10:28:02.214Z,956.5
2018-11-27T10:29:02.205Z,956.46
2018-11-27T10:30:02.203Z,956.54
2018-11-27T10:31:02.305Z,956.48
2018-11-27T10:32:02.197Z,956.45
2018-11-27T10:33:02.193Z,956.44
2018-11-27T10:34:02.191Z,956.41
2018-11-27T10:35:02.194Z,956.43
2018-11-27T10:36:02.238Z,956.42
2018-11-27T10:37:02.183Z,956.42
2018-11-27T10:38:02.184Z,956.42
2018-11-27T10:39:02.183Z,956.43
2018-11-27T10:40:02.177Z,956.42
2018-11-27T10:41:02.176Z,956.39
2018-11-27T10:42:02.172Z,956.44
2018-11-27T10:43:02.169Z,956.48
2018-11-27T10:44:02.169Z,956.46
2018-11-27T10:45:02.167Z,956.4
2018-11-27T10:46:02.162Z,956.44
2018-11-27T10:47:02.159Z,956.44
2018-11-27T10:48:02.156Z,956.45
2018-11-27T10:49:02.154Z,956.44
2018-11-27T10:50:02.152Z,956.47
2018-11-27T10:51:02.199Z,956.44
2018-11-27T10:52:02.146Z,956.48
2018-11-27T10:53:02.144Z,956.52
2018-11-27T10:54:02.142Z,956.51
2018-11-27T10:55:02.140Z,956.47
2018-11-27T10:56:02.187Z,956.53
2018-11-27T10:57:02.135Z,956.56
2018-11-27T10:58:02.134Z,956.52
2018-11-27T10:59:02.130Z,956.51
2018-11-27T11:00:02.131Z,956.55
2018-11-27T11:01:02.126Z,956.54
2018-11-27T11:02:02.126Z,956.54
2018-11-27T11:03:02.120Z,956.55
2018-11-27T11:04:02.118Z,956.55
2018-11-27T11:05:02.124Z,956.56
2018-11-27T11:06:02.122Z,956.55
2018-11-27T11:07:02.111Z,956.55
2018-11-27T11:08:02.109Z,956.58
2018-11-27T11:09:02.106Z,956.58
2018-11-27T11:10:02.104Z,956.6
2018-11-27T11:11:02.154Z,956.62
2018-11-27T11:12:02.106Z,956.6
2018-11-27T11:13:02.098Z,956.62
2018-11-27T11:14:02.094Z,956.6
2018-11-27T11:15:02.096Z,956.63
2018-11-27T11:16:02.143Z,956.62
2018-11-27T11:17:02.088Z,956.66
2018-11-27T11:18:02.084Z,956.71
2018-11-27T11:19:02.085Z,956.7
2018-11-27T11:20:03.044Z,956.7
2018-11-27T11:21:02.327Z,956.7
2018-11-27T11:22:02.076Z,956.69
2018-11-27T11:23:02.074Z,956.7
2018-11-27T11:24:02.072Z,956.71
2018-11-27T11:25:02.068Z,956.71
2018-11-27T11:26:02.316Z,956.72
2018-11-27T11:27:02.065Z,956.68
2018-11-27T11:28:02.060Z,956.7
2018-11-27T11:29:02.060Z,956.74
2018-11-27T11:30:02.057Z,956.73
2018-11-27T11:31:02.104Z,956.72
2018-11-27T11:32:02.051Z,956.69
2018-11-27T11:33:02.068Z,956.69
2018-11-27T11:34:02.052Z,956.73
2018-11-27T11:35:02.046Z,956.72
2018-11-27T11:36:02.093Z,956.76
2018-11-27T11:37:02.040Z,956.72
2018-11-27T11:38:02.039Z,956.74
2018-11-27T11:39:02.036Z,956.74
2018-11-27T11:40:02.037Z,956.72
2018-11-27T11:41:02.048Z,956.75
2018-11-27T11:42:02.030Z,956.72
2018-11-27T11:43:02.029Z,956.76
2018-11-27T11:44:02.026Z,956.73
2018-11-27T11:45:02.024Z,956.77
2018-11-27T11:46:02.121Z,956.77
2018-11-27T11:47:02.019Z,956.77
2018-11-27T11:48:02.023Z,956.81
2018-11-27T11:49:02.034Z,956.8
2018-11-27T11:50:02.012Z,956.84
2018-11-27T11:51:02.060Z,956.88
2018-11-27T11:52:02.009Z,956.88
2018-11-27T11:53:02.008Z,956.9
2018-11-27T11:54:02.004Z,956.87
2018-11-27T11:55:02.005Z,956.9
2018-11-27T11:56:02.051Z,956.87
2018-11-27T11:57:01.997Z,956.87
2018-11-27T11:58:01.999Z,956.88
2018-11-27T11:59:01.995Z,956.89
2018-11-27T12:00:01.992Z,956.89
2018-11-27T12:01:01.991Z,956.89
2018-11-27T12:02:01.988Z,956.92
2018-11-27T12:03:01.989Z,956.88
2018-11-27T12:04:01.989Z,956.91
2018-11-27T12:05:01.980Z,956.91
2018-11-27T12:06:01.979Z,956.92
2018-11-27T12:07:01.978Z,956.87
2018-11-27T12:08:01.977Z,956.94
2018-11-27T12:09:01.974Z,956.95
2018-11-27T12:10:01.971Z,956.93
2018-11-27T12:11:02.018Z,956.91
2018-11-27T12:12:01.965Z,956.96
2018-11-27T12:13:01.964Z,956.99
2018-11-27T12:14:01.963Z,956.99
2018-11-27T12:15:01.958Z,956.99
2018-11-27T12:16:01.956Z,957.03
2018-11-27T12:17:01.955Z,957.05
2018-11-27T12:18:01.957Z,957.03
2018-11-27T12:19:01.951Z,957.01
2018-11-27T12:20:01.956Z,957.02
2018-11-27T12:21:01.948Z,957.05
2018-11-27T12:22:01.944Z,957.09
2018-11-27T12:23:01.942Z,957.03
2018-11-27T12:24:01.939Z,957.04
2018-11-27T12:25:01.937Z,957.06
2018-11-27T12:26:01.985Z,957.05
2018-11-27T12:27:01.934Z,957.12
2018-11-27T12:28:01.929Z,957.08
2018-11-27T12:29:01.934Z,957.1
2018-11-27T12:30:01.938Z,957.11